sensor_id;sensor_type;location;lat;lon;timestamp;P1;durP1;ratioP1;P2;durP2;ratioP2
11823;SDS011;5969;50.780;7.726;2024-02-26T00:00:17;3.42;;;2.08;;
11823;SDS011;5969;50.780;7.726;2024-02-26T00:02:45;1.73;;;1.30;;
11823;SDS011;5969;50.780;7.726;2024-02-26T00:05:12;5.15;;;2.53;;
11823;SDS011;5969;50.780;7.726;2024-02-26T00:07:39;6.07;;;4.18;;
11823;SDS011;5969;50.780;7.726;2024-02-26T00:10:09;7.25;;;3.95;;
11823;SDS011;5969;50.780;7.726;2024-02-26T00:12:36;2.50;;;1.85;;
11823;SDS011;5969;50.780;7.726;2024-02-26T00:15:04;5.40;;;3.47;;
11823;SDS011;5969;50.780;7.726;2024-02-26T00:17:31;3.88;;;2.40;;
11823;SDS011;5969;50.780;7.726;2024-02-26T00:19:58;2.65;;;1.50;;
11823;SDS011;5969;50.780;7.726;2024-02-26T00:22:26;2.53;;;1.60;;
11823;SDS011;5969;50.780;7.726;2024-02-26T00:24:53;3.15;;;1.58;;
11823;SDS011;5969;50.780;7.726;2024-02-26T00:27:21;1.77;;;1.42;;
11823;SDS011;5969;50.780;7.726;2024-02-26T00:29:48;2.60;;;2.00;;
11823;SDS011;5969;50.780;7.726;2024-02-26T00:32:16;3.22;;;1.80;;
11823;SDS011;5969;50.780;7.726;2024-02-26T00:34:43;2.33;;;1.63;;
11823;SDS011;5969;50.780;7.726;2024-02-26T00:37:10;1.63;;;1.50;;
11823;SDS011;5969;50.780;7.726;2024-02-26T00:39:37;2.95;;;1.55;;
11823;SDS011;5969;50.780;7.726;2024-02-26T00:42:04;1.80;;;1.52;;
11823;SDS011;5969;50.780;7.726;2024-02-26T00:44:33;2.15;;;1.50;;
11823;SDS011;5969;50.780;7.726;2024-02-26T00:47:00;2.97;;;1.90;;
11823;SDS011;5969;50.780;7.726;2024-02-26T00:49:28;3.55;;;2.20;;
11823;SDS011;5969;50.780;7.726;2024-02-26T00:51:55;7.07;;;3.83;;
11823;SDS011;5969;50.780;7.726;2024-02-26T00:54:22;6.80;;;3.42;;
11823;SDS011;5969;50.780;7.726;2024-02-26T00:56:49;4.78;;;2.78;;
11823;SDS011;5969;50.780;7.726;2024-02-26T00:59:16;5.65;;;2.80;;
11823;SDS011;5969;50.780;7.726;2024-02-26T01:01:44;7.50;;;4.75;;
11823;SDS011;5969;50.780;7.726;2024-02-26T01:04:11;2.28;;;1.70;;
11823;SDS011;5969;50.780;7.726;2024-02-26T01:06:38;4.22;;;2.42;;
11823;SDS011;5969;50.780;7.726;2024-02-26T01:09:05;2.88;;;2.08;;
11823;SDS011;5969;50.780;7.726;2024-02-26T01:11:33;2.15;;;1.95;;
11823;SDS011;5969;50.780;7.726;2024-02-26T01:14:00;2.13;;;1.08;;
11823;SDS011;5969;50.780;7.726;2024-02-26T01:16:28;1.63;;;1.23;;
11823;SDS011;5969;50.780;7.726;2024-02-26T01:18:58;2.03;;;1.30;;
11823;SDS011;5969;50.780;7.726;2024-02-26T01:21:25;1.40;;;1.17;;
11823;SDS011;5969;50.780;7.726;2024-02-26T01:23:54;1.40;;;1.10;;
11823;SDS011;5969;50.780;7.726;2024-02-26T01:26:21;2.08;;;1.30;;
11823;SDS011;5969;50.780;7.726;2024-02-26T01:28:48;2.35;;;1.33;;
11823;SDS011;5969;50.780;7.726;2024-02-26T01:31:15;1.25;;;1.15;;
11823;SDS011;5969;50.780;7.726;2024-02-26T01:33:42;1.50;;;1.20;;
11823;SDS011;5969;50.780;7.726;2024-02-26T01:36:11;1.77;;;1.10;;
11823;SDS011;5969;50.780;7.726;2024-02-26T01:38:38;1.83;;;1.50;;
11823;SDS011;5969;50.780;7.726;2024-02-26T01:41:05;1.60;;;1.30;;
11823;SDS011;5969;50.780;7.726;2024-02-26T01:43:32;1.27;;;1.15;;
11823;SDS011;5969;50.780;7.726;2024-02-26T01:45:59;1.45;;;1.20;;
11823;SDS011;5969;50.780;7.726;2024-02-26T01:48:26;2.30;;;1.13;;
11823;SDS011;5969;50.780;7.726;2024-02-26T01:50:53;1.90;;;1.40;;
11823;SDS011;5969;50.780;7.726;2024-02-26T01:53:21;2.97;;;1.42;;
11823;SDS011;5969;50.780;7.726;2024-02-26T01:55:49;1.20;;;1.00;;
11823;SDS011;5969;50.780;7.726;2024-02-26T01:58:16;1.83;;;1.30;;
11823;SDS011;5969;50.780;7.726;2024-02-26T02:00:43;2.40;;;1.25;;
11823;SDS011;5969;50.780;7.726;2024-02-26T02:03:10;1.35;;;1.25;;
11823;SDS011;5969;50.780;7.726;2024-02-26T02:05:37;3.00;;;1.20;;
11823;SDS011;5969;50.780;7.726;2024-02-26T02:08:06;2.03;;;1.23;;
11823;SDS011;5969;50.780;7.726;2024-02-26T02:10:35;1.83;;;1.20;;
11823;SDS011;5969;50.780;7.726;2024-02-26T02:13:02;1.33;;;1.05;;
11823;SDS011;5969;50.780;7.726;2024-02-26T02:15:29;1.30;;;1.20;;
11823;SDS011;5969;50.780;7.726;2024-02-26T02:17:56;1.65;;;1.48;;
11823;SDS011;5969;50.780;7.726;2024-02-26T02:20:26;2.50;;;1.30;;
11823;SDS011;5969;50.780;7.726;2024-02-26T02:22:53;1.58;;;1.30;;
11823;SDS011;5969;50.780;7.726;2024-02-26T02:25:20;1.20;;;1.10;;
11823;SDS011;5969;50.780;7.726;2024-02-26T02:27:47;1.30;;;1.00;;
11823;SDS011;5969;50.780;7.726;2024-02-26T02:30:14;2.42;;;1.20;;
11823;SDS011;5969;50.780;7.726;2024-02-26T02:32:41;1.17;;;1.08;;
11823;SDS011;5969;50.780;7.726;2024-02-26T02:35:09;1.60;;;1.10;;
11823;SDS011;5969;50.780;7.726;2024-02-26T02:37:37;1.17;;;1.00;;
11823;SDS011;5969;50.780;7.726;2024-02-26T02:40:05;1.50;;;1.20;;
11823;SDS011;5969;50.780;7.726;2024-02-26T02:42:32;1.38;;;1.10;;
11823;SDS011;5969;50.780;7.726;2024-02-26T02:44:59;1.15;;;1.00;;
11823;SDS011;5969;50.780;7.726;2024-02-26T02:47:26;1.42;;;1.30;;
11823;SDS011;5969;50.780;7.726;2024-02-26T02:49:53;1.60;;;1.20;;
11823;SDS011;5969;50.780;7.726;2024-02-26T02:52:20;1.40;;;1.10;;
11823;SDS011;5969;50.780;7.726;2024-02-26T02:54:48;2.70;;;1.17;;
11823;SDS011;5969;50.780;7.726;2024-02-26T02:57:15;2.55;;;1.20;;
11823;SDS011;5969;50.780;7.726;2024-02-26T02:59:43;1.42;;;1.33;;
11823;SDS011;5969;50.780;7.726;2024-02-26T03:02:10;1.30;;;1.20;;
11823;SDS011;5969;50.780;7.726;2024-02-26T03:04:37;4.00;;;1.30;;
11823;SDS011;5969;50.780;7.726;2024-02-26T03:07:04;1.70;;;1.33;;
11823;SDS011;5969;50.780;7.726;2024-02-26T03:09:31;1.50;;;1.10;;
11823;SDS011;5969;50.780;7.726;2024-02-26T03:11:59;1.25;;;1.08;;
11823;SDS011;5969;50.780;7.726;2024-02-26T03:14:26;1.33;;;1.10;;
11823;SDS011;5969;50.780;7.726;2024-02-26T03:16:53;1.98;;;1.20;;
11823;SDS011;5969;50.780;7.726;2024-02-26T03:19:21;3.35;;;1.27;;
11823;SDS011;5969;50.780;7.726;2024-02-26T03:21:48;2.08;;;1.20;;
11823;SDS011;5969;50.780;7.726;2024-02-26T03:24:15;1.52;;;1.30;;
11823;SDS011;5969;50.780;7.726;2024-02-26T03:26:42;1.10;;;1.00;;
11823;SDS011;5969;50.780;7.726;2024-02-26T03:29:10;1.23;;;1.10;;
11823;SDS011;5969;50.780;7.726;2024-02-26T03:31:37;1.50;;;1.10;;
11823;SDS011;5969;50.780;7.726;2024-02-26T03:34:04;1.48;;;1.20;;
11823;SDS011;5969;50.780;7.726;2024-02-26T03:36:31;1.48;;;1.20;;
11823;SDS011;5969;50.780;7.726;2024-02-26T03:38:58;1.35;;;1.25;;
11823;SDS011;5969;50.780;7.726;2024-02-26T03:41:27;1.55;;;1.17;;
11823;SDS011;5969;50.780;7.726;2024-02-26T03:43:55;1.30;;;1.20;;
11823;SDS011;5969;50.780;7.726;2024-02-26T03:46:23;1.98;;;1.45;;
11823;SDS011;5969;50.780;7.726;2024-02-26T03:48:50;2.60;;;1.40;;
11823;SDS011;5969;50.780;7.726;2024-02-26T03:51:17;1.42;;;1.33;;
11823;SDS011;5969;50.780;7.726;2024-02-26T03:53:44;2.13;;;1.40;;
11823;SDS011;5969;50.780;7.726;2024-02-26T03:56:11;1.30;;;1.10;;
11823;SDS011;5969;50.780;7.726;2024-02-26T03:58:39;1.40;;;1.20;;
11823;SDS011;5969;50.780;7.726;2024-02-26T04:01:07;1.20;;;1.10;;
11823;SDS011;5969;50.780;7.726;2024-02-26T04:03:35;1.15;;;1.02;;
11823;SDS011;5969;50.780;7.726;2024-02-26T04:06:02;2.75;;;1.20;;
11823;SDS011;5969;50.780;7.726;2024-02-26T04:08:30;1.58;;;1.30;;
11823;SDS011;5969;50.780;7.726;2024-02-26T04:10:57;1.92;;;1.30;;
11823;SDS011;5969;50.780;7.726;2024-02-26T04:13:24;1.20;;;1.10;;
11823;SDS011;5969;50.780;7.726;2024-02-26T04:15:51;2.72;;;1.77;;
11823;SDS011;5969;50.780;7.726;2024-02-26T04:18:18;2.42;;;1.48;;
11823;SDS011;5969;50.780;7.726;2024-02-26T04:20:46;1.40;;;1.30;;
11823;SDS011;5969;50.780;7.726;2024-02-26T04:23:13;2.25;;;1.45;;
11823;SDS011;5969;50.780;7.726;2024-02-26T04:25:40;1.52;;;1.15;;
11823;SDS011;5969;50.780;7.726;2024-02-26T04:28:08;1.48;;;1.20;;
11823;SDS011;5969;50.780;7.726;2024-02-26T04:30:35;1.40;;;1.30;;
11823;SDS011;5969;50.780;7.726;2024-02-26T04:33:02;1.90;;;1.40;;
11823;SDS011;5969;50.780;7.726;2024-02-26T04:35:29;4.15;;;1.33;;
11823;SDS011;5969;50.780;7.726;2024-02-26T04:37:57;1.33;;;1.23;;
11823;SDS011;5969;50.780;7.726;2024-02-26T04:40:24;1.58;;;1.25;;
11823;SDS011;5969;50.780;7.726;2024-02-26T04:42:51;1.38;;;1.10;;
11823;SDS011;5969;50.780;7.726;2024-02-26T04:45:18;2.13;;;1.40;;
11823;SDS011;5969;50.780;7.726;2024-02-26T04:47:45;1.70;;;1.20;;
11823;SDS011;5969;50.780;7.726;2024-02-26T04:50:13;1.73;;;1.45;;
11823;SDS011;5969;50.780;7.726;2024-02-26T04:52:40;1.40;;;1.00;;
11823;SDS011;5969;50.780;7.726;2024-02-26T04:55:09;1.40;;;1.20;;
11823;SDS011;5969;50.780;7.726;2024-02-26T04:57:36;1.45;;;1.35;;
11823;SDS011;5969;50.780;7.726;2024-02-26T05:00:03;1.40;;;1.10;;
11823;SDS011;5969;50.780;7.726;2024-02-26T05:02:31;1.63;;;1.40;;
11823;SDS011;5969;50.780;7.726;2024-02-26T05:05:03;2.08;;;1.50;;
11823;SDS011;5969;50.780;7.726;2024-02-26T05:07:30;3.63;;;1.70;;
11823;SDS011;5969;50.780;7.726;2024-02-26T05:09:57;1.80;;;1.30;;
11823;SDS011;5969;50.780;7.726;2024-02-26T05:12:25;1.75;;;1.40;;
11823;SDS011;5969;50.780;7.726;2024-02-26T05:14:52;1.70;;;1.50;;
11823;SDS011;5969;50.780;7.726;2024-02-26T05:17:19;1.75;;;1.45;;
11823;SDS011;5969;50.780;7.726;2024-02-26T05:19:46;1.40;;;1.30;;
11823;SDS011;5969;50.780;7.726;2024-02-26T05:22:13;1.48;;;1.27;;
11823;SDS011;5969;50.780;7.726;2024-02-26T05:24:41;3.10;;;1.25;;
11823;SDS011;5969;50.780;7.726;2024-02-26T05:27:08;3.05;;;1.50;;
11823;SDS011;5969;50.780;7.726;2024-02-26T05:29:37;1.35;;;1.25;;
11823;SDS011;5969;50.780;7.726;2024-02-26T05:32:04;1.55;;;1.25;;
11823;SDS011;5969;50.780;7.726;2024-02-26T05:34:32;1.40;;;1.30;;
11823;SDS011;5969;50.780;7.726;2024-02-26T05:36:59;1.85;;;1.50;;
11823;SDS011;5969;50.780;7.726;2024-02-26T05:39:26;2.05;;;1.65;;
11823;SDS011;5969;50.780;7.726;2024-02-26T05:41:53;1.80;;;1.50;;
11823;SDS011;5969;50.780;7.726;2024-02-26T05:44:22;1.95;;;1.65;;
11823;SDS011;5969;50.780;7.726;2024-02-26T05:46:50;1.38;;;1.27;;
11823;SDS011;5969;50.780;7.726;2024-02-26T05:49:17;2.50;;;1.60;;
11823;SDS011;5969;50.780;7.726;2024-02-26T05:51:44;1.55;;;1.40;;
11823;SDS011;5969;50.780;7.726;2024-02-26T05:54:11;1.73;;;1.60;;
11823;SDS011;5969;50.780;7.726;2024-02-26T05:56:39;2.97;;;1.30;;
11823;SDS011;5969;50.780;7.726;2024-02-26T05:59:06;2.30;;;1.58;;
11823;SDS011;5969;50.780;7.726;2024-02-26T06:01:33;1.80;;;1.70;;
11823;SDS011;5969;50.780;7.726;2024-02-26T06:04:01;2.50;;;1.70;;
11823;SDS011;5969;50.780;7.726;2024-02-26T06:06:29;1.92;;;1.55;;
11823;SDS011;5969;50.780;7.726;2024-02-26T06:08:57;2.30;;;1.70;;
11823;SDS011;5969;50.780;7.726;2024-02-26T06:11:24;3.10;;;1.85;;
11823;SDS011;5969;50.780;7.726;2024-02-26T06:13:51;2.35;;;1.60;;
11823;SDS011;5969;50.780;7.726;2024-02-26T06:16:18;1.80;;;1.63;;
11823;SDS011;5969;50.780;7.726;2024-02-26T06:18:45;1.48;;;1.35;;
11823;SDS011;5969;50.780;7.726;2024-02-26T06:21:13;1.70;;;1.60;;
11823;SDS011;5969;50.780;7.726;2024-02-26T06:23:42;1.85;;;1.60;;
11823;SDS011;5969;50.780;7.726;2024-02-26T06:26:09;1.83;;;1.60;;
11823;SDS011;5969;50.780;7.726;2024-02-26T06:28:36;2.33;;;1.65;;
11823;SDS011;5969;50.780;7.726;2024-02-26T06:31:05;2.50;;;1.73;;
11823;SDS011;5969;50.780;7.726;2024-02-26T06:33:32;2.38;;;1.83;;
11823;SDS011;5969;50.780;7.726;2024-02-26T06:35:59;2.63;;;1.90;;
11823;SDS011;5969;50.780;7.726;2024-02-26T06:38:28;2.85;;;1.60;;
11823;SDS011;5969;50.780;7.726;2024-02-26T06:40:55;2.00;;;1.73;;
11823;SDS011;5969;50.780;7.726;2024-02-26T06:43:22;2.08;;;1.70;;
11823;SDS011;5969;50.780;7.726;2024-02-26T06:45:49;2.17;;;1.63;;
11823;SDS011;5969;50.780;7.726;2024-02-26T06:48:16;1.80;;;1.60;;
11823;SDS011;5969;50.780;7.726;2024-02-26T06:50:43;1.60;;;1.33;;
11823;SDS011;5969;50.780;7.726;2024-02-26T06:53:10;2.25;;;1.63;;
11823;SDS011;5969;50.780;7.726;2024-02-26T06:55:38;3.03;;;1.70;;
11823;SDS011;5969;50.780;7.726;2024-02-26T06:58:06;2.53;;;1.80;;
11823;SDS011;5969;50.780;7.726;2024-02-26T07:00:33;1.90;;;1.70;;
11823;SDS011;5969;50.780;7.726;2024-02-26T07:03:00;1.85;;;1.70;;
11823;SDS011;5969;50.780;7.726;2024-02-26T07:05:27;1.92;;;1.67;;
11823;SDS011;5969;50.780;7.726;2024-02-26T07:07:54;2.35;;;1.83;;
11823;SDS011;5969;50.780;7.726;2024-02-26T07:10:21;2.10;;;1.90;;
11823;SDS011;5969;50.780;7.726;2024-02-26T07:12:51;1.90;;;1.70;;
11823;SDS011;5969;50.780;7.726;2024-02-26T07:15:19;1.98;;;1.60;;
11823;SDS011;5969;50.780;7.726;2024-02-26T07:17:46;2.05;;;1.60;;
11823;SDS011;5969;50.780;7.726;2024-02-26T07:20:14;2.25;;;1.83;;
11823;SDS011;5969;50.780;7.726;2024-02-26T07:22:43;3.25;;;2.10;;
11823;SDS011;5969;50.780;7.726;2024-02-26T07:25:10;1.83;;;1.60;;
11823;SDS011;5969;50.780;7.726;2024-02-26T07:27:38;2.05;;;1.85;;
11823;SDS011;5969;50.780;7.726;2024-02-26T07:30:08;2.33;;;1.70;;
11823;SDS011;5969;50.780;7.726;2024-02-26T07:32:35;2.22;;;1.60;;
11823;SDS011;5969;50.780;7.726;2024-02-26T07:35:02;1.80;;;1.70;;
11823;SDS011;5969;50.780;7.726;2024-02-26T07:37:30;1.73;;;1.52;;
11823;SDS011;5969;50.780;7.726;2024-02-26T07:39:57;1.80;;;1.67;;
11823;SDS011;5969;50.780;7.726;2024-02-26T07:42:24;2.28;;;2.08;;
11823;SDS011;5969;50.780;7.726;2024-02-26T07:44:51;2.13;;;1.83;;
11823;SDS011;5969;50.780;7.726;2024-02-26T07:47:19;2.95;;;1.73;;
11823;SDS011;5969;50.780;7.726;2024-02-26T07:49:47;4.28;;;2.28;;
11823;SDS011;5969;50.780;7.726;2024-02-26T07:52:14;3.13;;;1.92;;
11823;SDS011;5969;50.780;7.726;2024-02-26T07:54:41;2.63;;;1.92;;
11823;SDS011;5969;50.780;7.726;2024-02-26T07:57:08;2.28;;;2.08;;
11823;SDS011;5969;50.780;7.726;2024-02-26T07:59:35;2.20;;;2.00;;
11823;SDS011;5969;50.780;7.726;2024-02-26T08:02:02;2.17;;;1.77;;
11823;SDS011;5969;50.780;7.726;2024-02-26T08:04:32;2.28;;;1.80;;
11823;SDS011;5969;50.780;7.726;2024-02-26T08:06:59;2.67;;;1.98;;
11823;SDS011;5969;50.780;7.726;2024-02-26T08:09:26;2.30;;;1.90;;
11823;SDS011;5969;50.780;7.726;2024-02-26T08:11:53;1.90;;;1.60;;
11823;SDS011;5969;50.780;7.726;2024-02-26T08:14:20;2.60;;;2.10;;
11823;SDS011;5969;50.780;7.726;2024-02-26T08:16:47;2.78;;;2.20;;
11823;SDS011;5969;50.780;7.726;2024-02-26T08:19:15;2.42;;;2.08;;
11823;SDS011;5969;50.780;7.726;2024-02-26T08:21:44;3.35;;;2.40;;
11823;SDS011;5969;50.780;7.726;2024-02-26T08:24:11;2.22;;;1.80;;
11823;SDS011;5969;50.780;7.726;2024-02-26T08:26:38;2.40;;;2.15;;
11823;SDS011;5969;50.780;7.726;2024-02-26T08:29:05;3.88;;;2.25;;
11823;SDS011;5969;50.780;7.726;2024-02-26T08:31:32;2.83;;;1.95;;
11823;SDS011;5969;50.780;7.726;2024-02-26T08:34:02;2.47;;;2.28;;
11823;SDS011;5969;50.780;7.726;2024-02-26T08:36:29;3.85;;;2.40;;
11823;SDS011;5969;50.780;7.726;2024-02-26T08:38:58;2.97;;;2.17;;
11823;SDS011;5969;50.780;7.726;2024-02-26T08:41:25;2.90;;;2.05;;
11823;SDS011;5969;50.780;7.726;2024-02-26T08:43:52;3.15;;;2.40;;
11823;SDS011;5969;50.780;7.726;2024-02-26T08:46:19;2.70;;;2.28;;
11823;SDS011;5969;50.780;7.726;2024-02-26T08:48:48;3.35;;;1.98;;
11823;SDS011;5969;50.780;7.726;2024-02-26T08:51:15;3.72;;;2.38;;
11823;SDS011;5969;50.780;7.726;2024-02-26T08:53:42;2.40;;;2.10;;
11823;SDS011;5969;50.780;7.726;2024-02-26T08:56:11;2.95;;;2.45;;
11823;SDS011;5969;50.780;7.726;2024-02-26T08:58:41;2.45;;;1.92;;
11823;SDS011;5969;50.780;7.726;2024-02-26T09:01:08;4.93;;;2.33;;
11823;SDS011;5969;50.780;7.726;2024-02-26T09:03:36;3.30;;;2.50;;
11823;SDS011;5969;50.780;7.726;2024-02-26T09:06:03;2.75;;;2.47;;
11823;SDS011;5969;50.780;7.726;2024-02-26T09:08:31;6.35;;;3.70;;
11823;SDS011;5969;50.780;7.726;2024-02-26T09:11:01;2.72;;;2.50;;
11823;SDS011;5969;50.780;7.726;2024-02-26T09:13:29;2.42;;;2.22;;
11823;SDS011;5969;50.780;7.726;2024-02-26T09:15:57;2.40;;;2.17;;
11823;SDS011;5969;50.780;7.726;2024-02-26T09:18:24;2.70;;;2.40;;
11823;SDS011;5969;50.780;7.726;2024-02-26T09:20:53;2.90;;;2.53;;
11823;SDS011;5969;50.780;7.726;2024-02-26T09:23:20;3.35;;;2.47;;
11823;SDS011;5969;50.780;7.726;2024-02-26T09:25:48;2.72;;;2.38;;
11823;SDS011;5969;50.780;7.726;2024-02-26T09:28:15;2.83;;;2.35;;
11823;SDS011;5969;50.780;7.726;2024-02-26T09:30:44;2.70;;;2.40;;
11823;SDS011;5969;50.780;7.726;2024-02-26T09:33:11;2.17;;;1.98;;
11823;SDS011;5969;50.780;7.726;2024-02-26T09:35:38;4.03;;;2.33;;
11823;SDS011;5969;50.780;7.726;2024-02-26T09:38:06;3.03;;;2.20;;
11823;SDS011;5969;50.780;7.726;2024-02-26T09:40:33;3.45;;;2.30;;
11823;SDS011;5969;50.780;7.726;2024-02-26T09:43:00;2.47;;;2.28;;
11823;SDS011;5969;50.780;7.726;2024-02-26T09:45:28;2.88;;;2.58;;
11823;SDS011;5969;50.780;7.726;2024-02-26T09:47:56;3.17;;;2.88;;
11823;SDS011;5969;50.780;7.726;2024-02-26T09:50:23;3.80;;;2.30;;
11823;SDS011;5969;50.780;7.726;2024-02-26T09:52:51;2.88;;;2.17;;
11823;SDS011;5969;50.780;7.726;2024-02-26T09:55:19;2.80;;;2.55;;
11823;SDS011;5969;50.780;7.726;2024-02-26T09:57:46;3.45;;;2.17;;
11823;SDS011;5969;50.780;7.726;2024-02-26T10:00:14;2.47;;;2.28;;
11823;SDS011;5969;50.780;7.726;2024-02-26T10:02:43;3.45;;;2.08;;
11823;SDS011;5969;50.780;7.726;2024-02-26T10:05:12;2.35;;;2.15;;
11823;SDS011;5969;50.780;7.726;2024-02-26T10:07:41;2.70;;;2.22;;
11823;SDS011;5969;50.780;7.726;2024-02-26T10:10:09;3.63;;;2.50;;
11823;SDS011;5969;50.780;7.726;2024-02-26T10:12:36;2.30;;;1.95;;
11823;SDS011;5969;50.780;7.726;2024-02-26T10:15:03;2.80;;;2.22;;
11823;SDS011;5969;50.780;7.726;2024-02-26T10:17:30;3.65;;;2.40;;
11823;SDS011;5969;50.780;7.726;2024-02-26T10:20:10;3.45;;;2.25;;
11823;SDS011;5969;50.780;7.726;2024-02-26T10:22:39;2.40;;;2.20;;
11823;SDS011;5969;50.780;7.726;2024-02-26T10:25:06;2.60;;;2.40;;
11823;SDS011;5969;50.780;7.726;2024-02-26T10:27:33;4.70;;;2.47;;
11823;SDS011;5969;50.780;7.726;2024-02-26T10:30:02;3.05;;;2.40;;
11823;SDS011;5969;50.780;7.726;2024-02-26T10:32:29;3.92;;;2.60;;
11823;SDS011;5969;50.780;7.726;2024-02-26T10:34:57;3.25;;;2.28;;
11823;SDS011;5969;50.780;7.726;2024-02-26T10:37:24;2.63;;;2.17;;
11823;SDS011;5969;50.780;7.726;2024-02-26T10:39:53;2.97;;;2.42;;
11823;SDS011;5969;50.780;7.726;2024-02-26T10:42:20;2.60;;;2.30;;
11823;SDS011;5969;50.780;7.726;2024-02-26T10:44:47;3.05;;;2.60;;
11823;SDS011;5969;50.780;7.726;2024-02-26T10:47:14;3.30;;;2.85;;
11823;SDS011;5969;50.780;7.726;2024-02-26T10:49:45;2.70;;;2.50;;
11823;SDS011;5969;50.780;7.726;2024-02-26T10:52:13;4.03;;;2.50;;
11823;SDS011;5969;50.780;7.726;2024-02-26T10:54:41;3.58;;;2.40;;
11823;SDS011;5969;50.780;7.726;2024-02-26T10:57:12;4.13;;;2.90;;
11823;SDS011;5969;50.780;7.726;2024-02-26T10:59:39;4.07;;;2.88;;
11823;SDS011;5969;50.780;7.726;2024-02-26T11:02:08;2.90;;;2.60;;
11823;SDS011;5969;50.780;7.726;2024-02-26T11:04:36;3.42;;;2.53;;
11823;SDS011;5969;50.780;7.726;2024-02-26T11:07:04;3.88;;;2.53;;
11823;SDS011;5969;50.780;7.726;2024-02-26T11:09:31;4.60;;;3.13;;
11823;SDS011;5969;50.780;7.726;2024-02-26T11:11:59;3.08;;;2.78;;
11823;SDS011;5969;50.780;7.726;2024-02-26T11:14:28;3.00;;;2.42;;
11823;SDS011;5969;50.780;7.726;2024-02-26T11:16:56;3.10;;;2.70;;
11823;SDS011;5969;50.780;7.726;2024-02-26T11:19:24;3.58;;;2.55;;
11823;SDS011;5969;50.780;7.726;2024-02-26T11:21:51;3.58;;;2.75;;
11823;SDS011;5969;50.780;7.726;2024-02-26T11:24:18;4.57;;;2.40;;
11823;SDS011;5969;50.780;7.726;2024-02-26T11:26:47;3.40;;;2.75;;
11823;SDS011;5969;50.780;7.726;2024-02-26T11:29:17;4.10;;;2.78;;
11823;SDS011;5969;50.780;7.726;2024-02-26T11:31:50;3.28;;;2.70;;
11823;SDS011;5969;50.780;7.726;2024-02-26T11:34:17;2.90;;;2.50;;
11823;SDS011;5969;50.780;7.726;2024-02-26T11:36:44;3.30;;;2.55;;
11823;SDS011;5969;50.780;7.726;2024-02-26T11:39:12;3.38;;;2.72;;
11823;SDS011;5969;50.780;7.726;2024-02-26T11:41:41;3.25;;;2.85;;
11823;SDS011;5969;50.780;7.726;2024-02-26T11:44:08;3.17;;;2.88;;
11823;SDS011;5969;50.780;7.726;2024-02-26T11:46:38;4.47;;;3.20;;
11823;SDS011;5969;50.780;7.726;2024-02-26T11:51:51;3.67;;;3.38;;
11823;SDS011;5969;50.780;7.726;2024-02-26T11:57:02;3.22;;;2.92;;
11823;SDS011;5969;50.780;7.726;2024-02-26T11:59:37;4.43;;;3.30;;
11823;SDS011;5969;50.780;7.726;2024-02-26T12:02:04;2.88;;;2.50;;
11823;SDS011;5969;50.780;7.726;2024-02-26T12:04:31;3.45;;;2.70;;
11823;SDS011;5969;50.780;7.726;2024-02-26T12:07:02;3.25;;;2.95;;
11823;SDS011;5969;50.780;7.726;2024-02-26T12:09:30;3.30;;;2.65;;
11823;SDS011;5969;50.780;7.726;2024-02-26T12:11:58;3.17;;;2.85;;
11823;SDS011;5969;50.780;7.726;2024-02-26T12:14:25;3.20;;;2.90;;
11823;SDS011;5969;50.780;7.726;2024-02-26T12:16:52;3.30;;;3.00;;
11823;SDS011;5969;50.780;7.726;2024-02-26T12:19:19;3.40;;;2.80;;
11823;SDS011;5969;50.780;7.726;2024-02-26T12:21:48;3.65;;;3.08;;
11823;SDS011;5969;50.780;7.726;2024-02-26T12:24:19;3.70;;;3.40;;
11823;SDS011;5969;50.780;7.726;2024-02-26T12:26:46;3.47;;;3.15;;
11823;SDS011;5969;50.780;7.726;2024-02-26T12:29:13;3.20;;;2.80;;
11823;SDS011;5969;50.780;7.726;2024-02-26T12:31:40;4.22;;;3.40;;
11823;SDS011;5969;50.780;7.726;2024-02-26T12:34:08;4.50;;;3.20;;
11823;SDS011;5969;50.780;7.726;2024-02-26T12:36:36;4.47;;;3.50;;
11823;SDS011;5969;50.780;7.726;2024-02-26T12:39:04;3.58;;;3.15;;
11823;SDS011;5969;50.780;7.726;2024-02-26T12:41:33;4.18;;;3.15;;
11823;SDS011;5969;50.780;7.726;2024-02-26T12:44:00;3.97;;;3.58;;
11823;SDS011;5969;50.780;7.726;2024-02-26T12:46:27;3.58;;;2.80;;
11823;SDS011;5969;50.780;7.726;2024-02-26T12:48:55;3.10;;;2.80;;
11823;SDS011;5969;50.780;7.726;2024-02-26T12:51:23;3.47;;;3.17;;
11823;SDS011;5969;50.780;7.726;2024-02-26T12:53:51;3.13;;;2.80;;
11823;SDS011;5969;50.780;7.726;2024-02-26T12:56:18;3.80;;;3.20;;
11823;SDS011;5969;50.780;7.726;2024-02-26T12:58:47;3.63;;;2.70;;
11823;SDS011;5969;50.780;7.726;2024-02-26T13:01:14;3.22;;;2.60;;
11823;SDS011;5969;50.780;7.726;2024-02-26T13:03:41;2.45;;;2.25;;
11823;SDS011;5969;50.780;7.726;2024-02-26T13:06:09;3.05;;;2.85;;
11823;SDS011;5969;50.780;7.726;2024-02-26T13:08:36;3.13;;;2.83;;
11823;SDS011;5969;50.780;7.726;2024-02-26T13:11:03;3.38;;;2.85;;
11823;SDS011;5969;50.780;7.726;2024-02-26T13:13:31;5.72;;;2.95;;
11823;SDS011;5969;50.780;7.726;2024-02-26T13:16:02;5.65;;;4.32;;
11823;SDS011;5969;50.780;7.726;2024-02-26T13:18:31;4.65;;;4.25;;
11823;SDS011;5969;50.780;7.726;2024-02-26T13:21:11;3.42;;;3.13;;
11823;SDS011;5969;50.780;7.726;2024-02-26T13:23:38;3.30;;;2.72;;
11823;SDS011;5969;50.780;7.726;2024-02-26T13:26:06;3.13;;;2.83;;
11823;SDS011;5969;50.780;7.726;2024-02-26T13:28:34;3.05;;;2.65;;
11823;SDS011;5969;50.780;7.726;2024-02-26T13:31:02;3.78;;;3.05;;
11823;SDS011;5969;50.780;7.726;2024-02-26T13:33:32;3.13;;;2.70;;
11823;SDS011;5969;50.780;7.726;2024-02-26T13:36:00;3.17;;;2.88;;
11823;SDS011;5969;50.780;7.726;2024-02-26T13:38:27;2.97;;;2.50;;
11823;SDS011;5969;50.780;7.726;2024-02-26T13:40:54;4.70;;;2.75;;
11823;SDS011;5969;50.780;7.726;2024-02-26T13:43:22;7.75;;;2.85;;
11823;SDS011;5969;50.780;7.726;2024-02-26T13:45:49;4.45;;;2.70;;
11823;SDS011;5969;50.780;7.726;2024-02-26T13:48:17;3.78;;;3.17;;
11823;SDS011;5969;50.780;7.726;2024-02-26T13:50:44;3.55;;;2.83;;
11823;SDS011;5969;50.780;7.726;2024-02-26T13:53:11;3.22;;;2.70;;
11823;SDS011;5969;50.780;7.726;2024-02-26T13:55:39;4.00;;;2.50;;
11823;SDS011;5969;50.780;7.726;2024-02-26T13:58:07;2.70;;;2.50;;
11823;SDS011;5969;50.780;7.726;2024-02-26T14:00:35;3.28;;;2.88;;
11823;SDS011;5969;50.780;7.726;2024-02-26T14:03:02;3.35;;;2.83;;
11823;SDS011;5969;50.780;7.726;2024-02-26T14:05:31;5.93;;;3.33;;
11823;SDS011;5969;50.780;7.726;2024-02-26T14:07:58;3.60;;;3.00;;
11823;SDS011;5969;50.780;7.726;2024-02-26T14:10:25;3.92;;;3.03;;
11823;SDS011;5969;50.780;7.726;2024-02-26T14:12:52;3.72;;;3.03;;
11823;SDS011;5969;50.780;7.726;2024-02-26T14:15:19;3.70;;;2.90;;
11823;SDS011;5969;50.780;7.726;2024-02-26T14:17:46;3.75;;;3.17;;
11823;SDS011;5969;50.780;7.726;2024-02-26T14:20:18;3.38;;;2.55;;
11823;SDS011;5969;50.780;7.726;2024-02-26T14:22:47;4.05;;;3.15;;
11823;SDS011;5969;50.780;7.726;2024-02-26T14:25:14;3.63;;;3.00;;
11823;SDS011;5969;50.780;7.726;2024-02-26T14:27:42;3.70;;;2.97;;
11823;SDS011;5969;50.780;7.726;2024-02-26T14:30:09;3.28;;;2.97;;
11823;SDS011;5969;50.780;7.726;2024-02-26T14:32:36;4.05;;;2.95;;
11823;SDS011;5969;50.780;7.726;2024-02-26T14:35:04;3.92;;;3.28;;
11823;SDS011;5969;50.780;7.726;2024-02-26T14:37:32;4.18;;;3.15;;
11823;SDS011;5969;50.780;7.726;2024-02-26T14:40:01;4.78;;;3.05;;
11823;SDS011;5969;50.780;7.726;2024-02-26T14:42:28;3.58;;;3.10;;
11823;SDS011;5969;50.780;7.726;2024-02-26T14:44:55;3.95;;;3.10;;
11823;SDS011;5969;50.780;7.726;2024-02-26T14:47:22;4.65;;;3.35;;
11823;SDS011;5969;50.780;7.726;2024-02-26T14:49:49;3.63;;;2.90;;
11823;SDS011;5969;50.780;7.726;2024-02-26T14:52:17;3.83;;;2.95;;
11823;SDS011;5969;50.780;7.726;2024-02-26T14:54:44;3.95;;;2.92;;
11823;SDS011;5969;50.780;7.726;2024-02-26T14:57:12;4.13;;;3.72;;
11823;SDS011;5969;50.780;7.726;2024-02-26T14:59:39;5.82;;;3.25;;
11823;SDS011;5969;50.780;7.726;2024-02-26T15:02:07;4.15;;;3.28;;
11823;SDS011;5969;50.780;7.726;2024-02-26T15:04:35;3.30;;;3.00;;
11823;SDS011;5969;50.780;7.726;2024-02-26T15:07:03;4.65;;;3.75;;